Time;durP1;ratioP1;P1;durP2;ratioP2;P2;SDS_P1;SDS_P2;PMS_P1;PMS_P2;Temp;Humidity;BMP_temperature;BMP_pressure;BME280_temperature;BME280_humidity;BME280_pressure;Samples;Min_cycle;Max_cycle;Signal;HPM_P1;HPM_P2
2021/12/01 00:01:04;;;;;;;2.22;1.40;;;9.40;99.90;;;7.83;100.00;99950.06;2567299;30;137456;-38
2021/12/01 00:03:31;;;;;;;1.92;1.15;;;9.40;99.90;;;7.79;100.00;99948.84;2570507;30;136953;-38
2021/12/01 00:05:59;;;;;;;1.88;1.10;;;9.40;99.90;;;7.76;100.00;99938.41;2567408;30;138708;-38
2021/12/01 00:08:26;;;;;;;2.33;1.13;;;9.40;99.90;;;7.76;100.00;99938.41;2569705;30;138434;-38
2021/12/01 00:10:54;;;;;;;2.40;1.10;;;9.30;99.90;;;7.72;100.00;99938.00;2570957;30;137944;-38
2021/12/01 00:13:22;;;;;;;2.50;1.48;;;9.40;99.90;;;7.77;100.00;99931.94;2570565;30;138237;-38
2021/12/01 00:15:52;;;;;;;3.30;1.13;;;9.30;99.90;;;7.76;100.00;99927.53;2569044;30;137089;-38
2021/12/01 00:18:20;;;;;;;3.53;1.38;;;9.30;99.90;;;7.75;100.00;99913.13;2568510;30;137432;-38
2021/12/01 00:20:47;;;;;;;;;;;9.40;99.90;;;7.78;100.00;99906.44;2571265;30;138944;-38
2021/12/01 00:23:15;;;;;;;1.50;1.10;;;9.40;99.90;;;7.76;100.00;99908.53;2568904;30;137146;-38
2021/12/01 00:25:43;;;;;;;4.35;1.20;;;9.40;99.90;;;7.75;100.00;99898.72;2570813;30;138366;-38
2021/12/01 00:28:11;;;;;;;;;;;9.30;99.90;;;7.72;100.00;99888.31;2573220;30;137416;-38
2021/12/01 00:30:40;;;;;;;2.60;1.60;;;9.30;99.90;;;7.74;100.00;99886.19;2568448;30;138139;-38
2021/12/01 00:33:17;;;;;;;2.08;1.40;;;9.30;99.90;;;7.71;100.00;99876.59;2571972;30;137314;-38
2021/12/01 00:35:45;;;;;;;1.83;1.30;;;9.30;99.90;;;7.70;100.00;99871.41;2569267;30;139031;-38
2021/12/01 00:38:13;;;;;;;2.45;1.55;;;9.30;99.90;;;7.73;100.00;99870.97;2569977;30;136593;-38
2021/12/01 00:40:40;;;;;;;2.00;1.20;;;9.30;99.90;;;7.73;100.00;99865.53;2569441;30;138204;-38
2021/12/01 00:43:15;;;;;;;4.07;1.58;;;9.30;99.90;;;7.75;100.00;99861.53;2570390;30;137019;-38
2021/12/01 00:45:53;;;;;;;1.73;1.08;;;9.30;99.90;;;7.69;100.00;99850.69;2569035;30;138849;-38
2021/12/01 00:48:22;;;;;;;3.10;1.40;;;9.30;99.90;;;7.73;100.00;99850.06;2570352;30;137407;-38
2021/12/01 00:50:51;;;;;;;2.13;1.17;;;9.30;99.90;;;7.75;100.00;99834.38;2571951;30;138259;-38
2021/12/01 00:53:19;;;;;;;1.98;1.00;;;9.40;99.90;;;7.74;100.00;99837.31;2569447;30;137749;-38
2021/12/01 00:55:47;;;;;;;1.70;1.00;;;9.30;99.90;;;7.75;100.00;99828.13;2569501;30;138258;-38
2021/12/01 00:58:15;;;;;;;2.20;0.90;;;9.30;99.90;;;7.75;100.00;99828.13;2567261;30;137125;-38
2021/12/01 01:00:44;;;;;;;1.73;1.00;;;9.30;99.90;;;7.75;100.00;99826.22;2569470;30;137923;-37
2021/12/01 01:03:12;;;;;;;3.10;1.05;;;9.40;99.90;;;7.74;100.00;99810.19;2570318;30;137194;-38
2021/12/01 01:05:39;;;;;;;2.83;0.98;;;9.30;99.90;;;7.72;100.00;99807.66;2568935;30;137214;-38
2021/12/01 01:08:15;;;;;;;2.85;0.93;;;9.30;99.90;;;7.69;100.00;99797.25;2569241;30;136952;-38
2021/12/01 01:19:05;;;;;;;1.25;0.90;;;9.30;99.90;;;7.70;100.00;99784.50;2568806;30;138088;-38
2021/12/01 01:21:38;;;;;;;3.45;1.35;;;9.30;99.90;;;7.67;100.00;99788.50;2567839;30;138400;-38
2021/12/01 01:24:06;;;;;;;3.45;1.30;;;9.20;99.90;;;7.69;100.00;99777.41;2570823;30;137002;-38
2021/12/01 01:26:35;;;;;;;2.15;1.10;;;9.20;99.90;;;7.72;100.00;99771.56;2568666;30;137384;-38
2021/12/01 01:29:07;;;;;;;2.05;1.15;;;9.30;99.90;;;7.68;100.00;99763.00;2568558;30;136888;-38
2021/12/01 01:31:39;;;;;;;2.60;1.02;;;9.30;99.90;;;7.71;100.00;99775.31;2568807;30;139029;-38
2021/12/01 01:34:06;;;;;;;2.08;1.25;;;9.30;99.90;;;7.69;100.00;99763.81;2570682;30;136965;-38
2021/12/01 01:36:34;;;;;;;2.20;1.30;;;9.30;99.90;;;7.72;100.00;99757.97;2569820;30;138133;-38
2021/12/01 01:39:04;;;;;;;3.13;1.15;;;9.30;99.90;;;7.68;100.00;99757.56;2570053;30;137440;-38
2021/12/01 01:41:32;;;;;;;3.22;1.20;;;9.30;99.90;;;7.69;100.00;99755.69;2570369;30;137237;-38
2021/12/01 01:44:00;;;;;;;2.17;1.15;;;9.30;99.90;;;7.66;100.00;99751.53;2568767;30;136940;-38
2021/12/01 01:46:36;;;;;;;1.77;1.13;;;9.20;99.90;;;7.60;100.00;99744.28;2570570;30;137167;-38
2021/12/01 01:49:19;;;;;;;2.35;1.10;;;9.20;99.90;;;7.58;100.00;99740.94;2568885;30;136823;-38
2021/12/01 01:51:49;;;;;;;2.95;1.15;;;9.20;99.90;;;7.58;100.00;99728.19;2569099;30;137891;-38
2021/12/01 01:54:17;;;;;;;2.22;1.13;;;9.20;99.90;;;7.55;100.00;99725.06;2566816;30;137694;-37
2021/12/01 01:56:45;;;;;;;2.47;1.10;;;9.10;99.90;;;7.56;100.00;99715.88;2569517;30;138129;-38
2021/12/01 01:59:12;;;;;;;2.40;1.00;;;9.10;99.90;;;7.53;100.00;99706.31;2567416;30;138690;-38
2021/12/01 02:01:46;;;;;;;1.30;0.85;;;9.10;99.90;;;7.48;100.00;99706.97;2568393;30;138273;-38
2021/12/01 02:04:18;;;;;;;4.57;1.20;;;9.10;99.90;;;7.54;100.00;99705.25;2568630;30;137462;-38
2021/12/01 02:06:48;;;;;;;1.83;1.10;;;9.10;99.90;;;7.51;100.00;99703.00;2566567;30;138057;-38
2021/12/01 02:09:22;;;;;;;1.38;0.80;;;9.10;99.90;;;7.53;100.00;99684.59;2569435;30;138305;-38
2021/12/01 02:11:58;;;;;;;2.08;1.00;;;9.10;99.90;;;7.55;100.00;99687.91;2569716;30;138387;-38
2021/12/01 02:14:27;;;;;;;1.77;1.00;;;9.20;99.90;;;7.54;100.00;99674.56;2570459;30;138034;-38
2021/12/01 02:16:57;;;;;;;1.25;0.80;;;9.10;99.90;;;7.53;100.00;99672.91;2568919;30;138195;-38
2021/12/01 02:19:26;;;;;;;2.03;1.10;;;9.10;99.90;;;7.47;100.00;99664.59;2568693;30;137417;-38
2021/12/01 02:21:53;;;;;;;2.00;1.10;;;9.10;99.90;;;7.46;100.00;99641.22;2570329;30;138815;-38
2021/12/01 02:24:23;;;;;;;1.77;1.05;;;9.10;99.90;;;7.45;100.00;99663.16;2569739;30;137438;-37
2021/12/01 02:26:53;;;;;;;1.52;1.02;;;9.10;99.90;;;7.42;100.00;99644.59;2569323;30;139298;-38
2021/12/01 02:29:27;;;;;;;2.08;1.20;;;9.00;99.90;;;7.46;100.00;99652.06;2569748;30;136690;-38
2021/12/01 02:31:55;;;;;;;2.50;1.45;;;9.00;99.90;;;7.46;100.00;99641.22;2569325;30;139051;-38
2021/12/01 02:34:24;;;;;;;3.35;1.10;;;9.10;99.90;;;7.41;100.00;99653.78;2568633;30;137868;-37
2021/12/01 02:36:57;;;;;;;2.70;1.58;;;9.00;99.90;;;7.42;100.00;99645.44;2567477;30;139617;-38
2021/12/01 02:39:27;;;;;;;3.03;1.67;;;9.00;99.90;;;7.46;100.00;99641.22;2569559;30;138278;-40
2021/12/01 02:41:59;;;;;;;3.20;1.80;;;9.10;99.90;;;7.45;100.00;99636.03;2566936;30;138306;-40
2021/12/01 02:44:28;;;;;;;3.00;1.70;;;9.00;99.90;;;7.44;100.00;99635.19;2569630;30;138166;-37
2021/12/01 02:46:56;;;;;;;3.70;2.03;;;9.00;99.90;;;7.41;100.00;99615.78;2567277;30;139236;-38
2021/12/01 02:49:25;;;;;;;;;;;9.00;99.90;;;7.42;100.00;99628.28;2569636;30;138694;-38
2021/12/01 02:51:56;;;;;;;4.05;2.53;;;9.00;99.90;;;7.41;100.00;99610.34;2570059;30;138177;-38
2021/12/01 02:54:26;;;;;;;4.03;2.45;;;9.00;99.90;;;7.44;100.00;99616.19;2568668;30;138621;-37
2021/12/01 02:56:54;;;;;;;4.75;2.70;;;9.00;99.90;;;7.41;100.00;99605.78;2569673;30;138486;-38
2021/12/01 02:59:24;;;;;;;4.47;2.72;;;9.00;99.90;;;7.44;100.00;99605.31;2568518;30;137788;-38
2021/12/01 03:01:54;;;;;;;4.60;2.35;;;9.00;99.90;;;7.41;100.00;99596.78;2568161;30;139330;-38
2021/12/01 03:04:23;;;;;;;3.67;2.53;;;9.00;99.90;;;7.44;100.00;99604.50;2569222;30;137548;-37
2021/12/01 03:06:51;;;;;;;4.78;2.60;;;9.00;99.90;;;7.41;100.00;99591.34;2570158;30;138281;-38
2021/12/01 03:09:18;;;;;;;;;;;9.00;99.90;;;7.41;100.00;99594.06;2569259;30;138382;-38
2021/12/01 03:11:46;;;;;;;4.32;2.83;;;9.00;99.90;;;7.24;100.00;99556.66;2569225;30;139319;-40
2021/12/01 03:14:18;;;;;;;;;;;9.00;99.90;;;7.42;100.00;99574.03;2569050;30;137422;-40
2021/12/01 03:16:47;;;;;;;5.20;3.00;;;9.00;99.90;;;7.37;100.00;99561.16;2569226;30;137194;-40
2021/12/01 03:19:15;;;;;;;4.90;3.00;;;9.00;99.90;;;7.41;100.00;99570.50;2567415;30;136736;-40
2021/12/01 03:21:45;;;;;;;4.88;3.10;;;9.00;99.90;;;7.40;100.00;99568.84;2568526;30;138416;-40
2021/12/01 03:24:12;;;;;;;4.95;3.33;;;9.00;99.90;;;7.39;100.00;99550.06;2567395;30;137189;-40
2021/12/01 03:26:40;;;;;;;6.07;4.00;;;9.00;99.90;;;7.39;100.00;99552.75;2567892;30;139015;-40
2021/12/01 03:29:11;;;;;;;7.05;3.55;;;9.00;99.90;;;7.38;100.00;99546.53;2566328;30;138153;-40
2021/12/01 03:31:39;;;;;;;5.80;3.58;;;9.00;99.90;;;7.33;100.00;99555.31;2568947;30;138202;-39
2021/12/01 03:34:09;;;;;;;5.38;3.20;;;8.90;99.90;;;7.27;100.00;99522.81;2567054;30;136751;-40
2021/12/01 03:36:37;;;;;;;5.47;3.35;;;8.90;99.90;;;7.26;100.00;99541.00;2568038;30;138346;-40
2021/12/01 03:39:04;;;;;;;6.25;3.72;;;8.90;99.90;;;7.27;100.00;99526.38;2567195;30;136896;-40
2021/12/01 03:41:34;;;;;;;6.22;3.63;;;8.90;99.90;;;7.26;100.00;99527.44;2567094;30;137341;-40
2021/12/01 03:44:02;;;;;;;7.68;4.13;;;8.80;99.90;;;7.27;100.00;99520.09;2567359;30;138477;-40
2021/12/01 03:46:30;;;;;;;8.90;4.13;;;8.90;99.90;;;7.23;100.00;99508.88;2567898;30;138999;-40
2021/12/01 03:48:58;;;;;;;8.02;4.00;;;8.80;99.90;;;7.19;100.00;99510.38;2568687;30;136920;-39
2021/12/01 03:51:25;;;;;;;5.82;3.97;;;8.80;99.90;;;7.13;100.00;99501.25;2568028;30;137324;-40
2021/12/01 03:53:53;;;;;;;;;;;8.80;99.90;;;7.14;100.00;99483.06;2567881;30;137468;-40
2021/12/01 03:56:21;;;;;;;6.93;4.22;;;8.70;99.90;;;7.05;100.00;99477.94;2568674;30;138433;-40
2021/12/01 03:58:48;;;;;;;6.85;4.38;;;8.70;99.90;;;6.95;100.00;99480.34;2568871;30;137399;-40
2021/12/01 04:01:16;;;;;;;7.40;4.75;;;8.60;99.90;;;6.95;100.00;99472.19;2568222;30;138237;-40
2021/12/01 04:03:44;;;;;;;7.45;4.82;;;8.60;99.90;;;6.93;100.00;99468.88;2568798;30;137166;-40
2021/12/01 04:06:11;;;;;;;8.20;4.78;;;8.60;99.90;;;6.90;100.00;99464.72;2567978;30;138212;-40
2021/12/01 04:08:40;;;;;;;11.63;4.30;;;8.50;99.90;;;6.86;100.00;99457.25;2568184;30;137926;-40
2021/12/01 04:11:07;;;;;;;6.82;4.22;;;8.50;99.90;;;6.84;100.00;99460.19;2567678;30;137342;-40
2021/12/01 04:13:35;;;;;;;6.40;4.40;;;8.50;99.90;;;6.83;100.00;99434.13;2568207;30;138437;-40
2021/12/01 04:16:03;;;;;;;7.18;4.40;;;8.50;99.90;;;6.83;100.00;99419.72;2568465;30;138407;-39
2021/12/01 04:18:30;;;;;;;;;;;8.40;99.90;;;6.79;100.00;99418.53;2568553;30;137468;-40
2021/12/01 04:20:58;;;;;;;7.20;4.22;;;8.40;99.90;;;6.75;100.00;99413.53;2566667;30;138156;-40
2021/12/01 04:23:26;;;;;;;6.38;4.05;;;8.40;99.90;;;6.76;100.00;99406.22;2567557;30;137451;-40
2021/12/01 04:25:53;;;;;;;7.72;3.80;;;8.40;99.90;;;6.74;100.00;99409.19;2567498;30;137747;-40
2021/12/01 04:28:21;;;;;;;7.60;3.63;;;8.40;99.90;;;6.74;100.00;99405.63;2567461;30;138254;-39
2021/12/01 04:30:48;;;;;;;6.25;3.70;;;8.40;99.90;;;6.72;100.00;99410.44;2566607;30;138264;-40
2021/12/01 04:33:16;;;;;;;7.82;3.85;;;8.30;99.90;;;6.71;100.00;99396.06;2567932;30;137950;-40
2021/12/01 04:35:45;;;;;;;;;;;8.30;99.90;;;6.72;100.00;99411.28;2568950;30;139190;-40
2021/12/01 04:38:13;;;;;;;6.05;3.40;;;8.30;99.90;;;6.64;100.00;99395.31;2567803;30;137059;-40
2021/12/01 04:40:41;;;;;;;6.65;3.40;;;8.30;99.90;;;6.75;100.00;99399.16;2568316;30;138226;-40
2021/12/01 04:43:08;;;;;;;6.05;3.20;;;8.30;99.90;;;6.73;100.00;99393.13;2567229;30;138382;-40
2021/12/01 04:45:41;;;;;;;5.72;3.45;;;8.30;99.90;;;6.76;100.00;99385.38;2568384;30;138239;-40
2021/12/01 04:48:09;;;;;;;7.88;3.65;;;8.40;99.90;;;6.71;100.00;99362.72;2568553;30;136801;-40
2021/12/01 04:50:37;;;;;;;5.03;3.08;;;8.40;99.90;;;6.74;100.00;99359.53;2567201;30;137366;-40
2021/12/01 04:53:04;;;;;;;7.32;3.88;;;8.30;99.90;;;6.76;100.00;99365.56;2568129;30;138248;-40
2021/12/01 04:55:32;;;;;;;4.68;3.25;;;8.40;99.90;;;6.75;100.00;99353.91;2568351;30;137609;-40
2021/12/01 04:58:00;;;;;;;4.88;2.85;;;8.40;99.90;;;6.71;100.00;99339.16;2566939;30;137445;-40
2021/12/01 05:00:28;;;;;;;6.70;3.05;;;8.30;99.90;;;6.71;100.00;99346.44;2567746;30;137320;-40
2021/12/01 05:02:56;;;;;;;4.57;2.97;;;8.30;99.90;;;6.67;100.00;99335.25;2566475;30;137440;-40
2021/12/01 05:05:33;;;;;;;4.57;3.17;;;8.30;99.90;;;6.69;100.00;99333.13;2567988;30;138953;-40
2021/12/01 05:08:01;;;;;;;6.65;2.90;;;8.30;99.90;;;6.72;100.00;99324.53;2568025;30;137983;-40
2021/12/01 05:10:29;;;;;;;4.47;2.90;;;8.30;99.90;;;6.73;100.00;99323.50;2568727;30;138237;-40
2021/12/01 05:12:57;;;;;;;6.40;2.65;;;8.40;99.90;;;6.68;100.00;99292.69;2569397;30;137486;-40
2021/12/01 05:15:24;;;;;;;4.25;2.53;;;8.30;99.90;;;6.71;100.00;99309.34;2569561;30;138223;-40
2021/12/01 05:17:52;;;;;;;3.70;2.30;;;8.40;99.90;;;6.76;100.00;99301.34;2566573;30;138338;-40
2021/12/01 05:20:19;;;;;;;4.10;2.17;;;8.40;99.90;;;6.72;100.00;99292.03;2568213;30;138190;-40
2021/12/01 05:22:47;;;;;;;5.57;2.15;;;8.40;99.90;;;6.74;100.00;99281.78;2566298;30;137574;-40
2021/12/01 05:25:14;;;;;;;3.67;2.10;;;8.40;99.90;;;6.76;100.00;99257.97;2567887;30;137117;-40
2021/12/01 05:27:42;;;;;;;3.65;1.98;;;8.40;99.90;;;6.72;100.00;99259.50;2568768;30;137280;-40
2021/12/01 05:30:10;;;;;;;2.83;1.63;;;8.40;99.90;;;6.79;100.00;99258.59;2565875;30;137764;-40
2021/12/01 05:32:38;;;;;;;3.70;2.20;;;8.40;99.90;;;6.79;100.00;99240.44;2568090;30;137606;-40
2021/12/01 05:35:06;;;;;;;3.92;1.77;;;8.40;99.90;;;6.72;100.00;99224.25;2568656;30;138420;-40
2021/12/01 05:37:34;;;;;;;3.60;1.58;;;8.40;99.90;;;6.73;100.00;99225.06;2568567;30;137034;-40
2021/12/01 05:40:03;;;;;;;3.67;1.80;;;8.40;99.90;;;6.77;100.00;99207.31;2567533;30;138274;-40
2021/12/01 05:42:31;;;;;;;3.50;1.77;;;8.40;99.90;;;6.75;100.00;99204.00;2568516;30;136995;-40
2021/12/01 05:44:59;;;;;;;3.25;1.58;;;8.40;99.90;;;6.72;100.00;99196.31;2568755;30;137422;-40
2021/12/01 05:47:26;;;;;;;3.70;1.90;;;8.40;99.90;;;6.74;100.00;99189.63;2566979;30;137667;-40
2021/12/01 05:49:54;;;;;;;2.70;1.65;;;8.40;99.90;;;6.76;100.00;99194.81;2568491;30;138342;-40
2021/12/01 05:52:21;;;;;;;3.60;1.95;;;8.40;99.90;;;6.74;100.00;99186.06;2568214;30;137730;-40
2021/12/01 05:54:51;;;;;;;5.47;2.10;;;8.40;99.90;;;6.78;100.00;99186.44;2567713;30;138173;-40
2021/12/01 05:57:18;;;;;;;4.55;2.10;;;8.40;99.90;;;6.87;100.00;99180.50;2567914;30;136621;-40
2021/12/01 05:59:46;;;;;;;4.93;2.03;;;8.40;99.90;;;6.84;100.00;99175.53;2568910;30;137404;-40
2021/12/01 06:02:14;;;;;;;3.60;1.90;;;8.40;99.90;;;6.86;100.00;99169.88;2565262;30;137493;-40
2021/12/01 06:04:42;;;;;;;4.80;1.70;;;8.50;99.90;;;6.90;99.94;99160.25;2565483;30;138339;-40
2021/12/01 06:07:10;;;;;;;4.35;1.80;;;8.50;99.90;;;6.89;100.00;99139.59;2568317;30;137340;-40
2021/12/01 06:09:41;;;;;;;3.78;1.83;;;8.50;99.90;;;6.92;100.00;99147.28;2569428;30;137117;-40
2021/12/01 06:12:11;;;;;;;;;;;8.50;99.90;;;6.90;99.50;99135.84;2567692;30;137067;-40
2021/12/01 06:14:45;;;;;;;3.33;1.65;;;8.50;99.90;;;6.95;99.65;99145.97;2568024;30;139177;-40
2021/12/01 06:17:14;;;;;;;3.00;1.83;;;8.50;99.90;;;6.95;99.45;99135.13;2568818;30;137061;-40
2021/12/01 06:19:41;;;;;;;2.83;1.50;;;8.50;99.90;;;6.97;99.35;99123.00;2567471;30;137305;-40
2021/12/01 06:22:09;;;;;;;3.42;1.63;;;8.60;99.90;;;6.96;99.68;99124.06;2568637;30;137425;-40
2021/12/01 06:24:36;;;;;;;4.25;1.48;;;8.60;99.90;;;7.00;99.36;99111.69;2567489;30;138154;-40
2021/12/01 06:27:05;;;;;;;3.90;1.60;;;8.60;99.90;;;6.98;99.54;99102.97;2568140;30;137621;-40
2021/12/01 06:29:34;;;;;;;4.45;1.60;;;8.60;99.90;;;7.04;98.10;99101.22;2567695;30;138666;-40
2021/12/01 06:32:01;;;;;;;3.75;1.42;;;8.60;99.90;;;7.02;99.09;99098.75;2566872;30;137458;-40
2021/12/01 06:34:29;;;;;;;3.13;1.40;;;8.60;99.90;;;7.03;99.31;99097.69;2567649;30;138428;-40
2021/12/01 06:36:57;;;;;;;2.67;1.40;;;8.60;99.90;;;7.07;98.30;99097.22;2566487;30;137083;-40
2021/12/01 06:39:24;;;;;;;2.72;1.35;;;8.70;99.90;;;7.05;98.91;99084.72;2568096;30;138105;-40
2021/12/01 06:41:54;;;;;;;2.20;1.38;;;8.70;99.90;;;7.10;98.25;99084.03;2568332;30;137561;-40
2021/12/01 06:44:24;;;;;;;2.90;1.48;;;8.70;99.90;;;7.11;98.41;99074.84;2567816;30;138193;-39
2021/12/01 06:46:52;;;;;;;4.72;1.30;;;8.70;99.90;;;7.08;98.75;99069.03;2568335;30;137520;-40
2021/12/01 06:49:19;;;;;;;2.95;1.20;;;8.70;99.90;;;7.10;98.69;99066.91;2567977;30;138350;-40
2021/12/01 06:51:47;;;;;;;1.83;1.15;;;8.70;99.90;;;7.09;99.13;99073.41;2567769;30;138565;-40
2021/12/01 06:54:15;;;;;;;2.22;1.27;;;8.70;99.90;;;7.11;98.63;99063.97;2567846;30;138101;-40
2021/12/01 06:56:43;;;;;;;2.92;1.27;;;8.70;99.90;;;7.15;97.43;99057.03;2566625;30;137308;-40
2021/12/01 06:59:10;;;;;;;;;;;8.70;99.90;;;7.18;97.86;99050.31;2567511;30;138522;-40
2021/12/01 07:01:38;;;;;;;1.50;0.90;;;8.70;99.90;;;7.15;97.48;99043.47;2568319;30;136762;-40
2021/12/01 07:04:06;;;;;;;1.83;0.93;;;8.80;99.90;;;7.18;97.72;99045.72;2567103;30;138075;-40
2021/12/01 07:06:33;;;;;;;1.92;0.95;;;8.80;99.90;;;7.20;97.68;99037.34;2568082;30;139176;-40
2021/12/01 07:09:01;;;;;;;2.97;0.60;;;8.80;99.90;;;7.23;96.81;99023.31;2566374;30;137692;-40
2021/12/01 07:11:29;;;;;;;;;;;8.80;99.90;;;7.28;96.62;99028.00;2568157;30;137480;-40
2021/12/01 07:13:57;;;;;;;1.05;0.63;;;8.80;99.90;;;7.31;96.33;99030.28;2568126;30;137023;-40
2021/12/01 07:16:25;;;;;;;1.75;0.55;;;8.90;99.90;;;7.31;96.30;99019.44;2563335;30;138374;-40
2021/12/01 07:18:53;;;;;;;1.27;0.60;;;8.90;99.90;;;7.28;96.87;99009.88;2568285;30;138311;-40
2021/12/01 07:21:20;;;;;;;1.02;0.50;;;8.90;99.90;;;7.30;96.98;99028.63;2568085;30;137409;-40
2021/12/01 07:23:48;;;;;;;1.23;0.50;;;8.90;99.90;;;7.30;97.25;99012.38;2568083;30;138882;-40
2021/12/01 07:26:16;;;;;;;0.57;0.40;;;8.90;99.90;;;7.36;97.32;99013.28;2567218;30;137482;-40
2021/12/01 07:28:43;;;;;;;1.02;0.40;;;8.90;99.90;;;7.33;96.80;99007.28;2568822;30;138323;-40
2021/12/01 07:31:11;;;;;;;1.00;0.40;;;8.90;99.90;;;7.34;96.52;99003.50;2567237;30;137561;-40
2021/12/01 07:33:39;;;;;;;0.55;0.45;;;8.90;99.90;;;7.39;96.46;98993.81;2567714;30;138173;-40
2021/12/01 07:36:08;;;;;;;1.20;0.47;;;9.00;99.90;;;7.47;96.73;98990.78;2565090;30;137074;-40
2021/12/01 07:38:35;;;;;;;0.57;0.38;;;9.00;99.90;;;7.47;96.37;98979.91;2566823;30;137298;-40
2021/12/01 07:41:03;;;;;;;0.73;0.60;;;9.00;99.90;;;7.51;96.72;98994.66;2567743;30;138263;-40
2021/12/01 07:43:30;;;;;;;0.40;0.30;;;9.10;99.90;;;7.49;96.15;98964.22;2567104;30;138290;-40
2021/12/01 07:46:01;;;;;;;1.45;0.50;;;9.10;99.90;;;7.51;96.40;98972.09;2568478;30;136704;-40
2021/12/01 07:48:31;;;;;;;0.43;0.30;;;9.10;99.90;;;7.52;96.57;98984.59;2567357;30;137252;-40
2021/12/01 07:50:59;;;;;;;0.47;0.30;;;9.10;99.90;;;7.51;96.47;98975.66;2565893;30;136861;-40
2021/12/01 07:53:26;;;;;;;;;;;9.10;99.90;;;7.54;96.30;98968.91;2568878;30;138162;-40
2021/12/01 07:55:54;;;;;;;1.33;0.40;;;9.10;99.90;;;7.52;97.01;98981.91;2568615;30;136955;-40
2021/12/01 07:58:22;;;;;;;0.82;0.40;;;9.10;99.90;;;7.51;97.18;98970.22;2568355;30;139191;-40
2021/12/01 08:00:49;;;;;;;0.98;0.43;;;9.10;99.90;;;7.49;97.04;98964.22;2565657;30;137606;-40
2021/12/01 08:03:17;;;;;;;1.55;0.40;;;9.10;99.90;;;7.51;97.43;98962.09;2567896;30;137662;-40
2021/12/01 08:05:46;;;;;;;0.20;0.20;;;9.10;99.90;;;7.51;97.29;98970.22;2568207;30;137581;-40
2021/12/01 08:08:13;;;;;;;0.20;0.20;;;9.10;99.90;;;7.49;97.87;98948.75;2568963;30;138041;-39
2021/12/01 08:10:41;;;;;;;0.45;0.30;;;9.10;99.90;;;7.51;97.36;98955.81;2567504;30;136906;-40
2021/12/01 08:13:09;;;;;;;0.63;0.22;;;9.10;99.90;;;7.52;98.16;98944.75;2569068;30;140180;-40
2021/12/01 08:15:49;;;;;;;1.05;0.45;;;9.10;99.90;;;7.55;98.64;98935.28;2566888;30;138031;-40
2021/12/01 08:18:18;;;;;;;0.65;0.30;;;9.10;99.90;;;7.49;97.85;98924.31;2568720;30;138528;-40
2021/12/01 08:20:46;;;;;;;2.42;0.30;;;9.10;99.90;;;7.46;98.66;98927.50;2567487;30;138281;-40
2021/12/01 08:23:14;;;;;;;;;;;9.10;99.90;;;7.52;97.69;98928.47;2568384;30;138191;-40
2021/12/01 08:25:42;;;;;;;0.40;0.30;;;9.10;99.90;;;7.52;97.76;98933.88;2568092;30;137784;-40
2021/12/01 08:28:09;;;;;;;0.35;0.25;;;9.10;99.90;;;7.52;97.70;98924.91;2568815;30;137176;-40
2021/12/01 08:30:37;;;;;;;0.20;0.20;;;9.10;99.90;;;7.55;98.16;98930.69;2567499;30;137315;-40
2021/12/01 08:33:05;;;;;;;0.70;0.32;;;9.10;99.90;;;7.58;97.76;98926.69;2567534;30;138352;-40
2021/12/01 08:35:33;;;;;;;;;;;9.20;99.90;;;7.57;98.09;98917.72;2568136;30;138258;-40
2021/12/01 08:38:00;;;;;;;0.75;0.20;;;9.10;99.90;;;7.56;98.92;98912.50;2567060;30;137937;-40
2021/12/01 08:40:28;;;;;;;2.17;0.30;;;9.10;99.90;;;7.60;98.28;98911.00;2568411;30;137639;-40
2021/12/01 08:42:55;;;;;;;0.55;0.20;;;9.20;99.90;;;7.57;98.44;98915.00;2568269;30;140071;-40
2021/12/01 08:45:23;;;;;;;0.57;0.30;;;9.20;99.90;;;7.62;98.27;98906.13;2569183;30;137544;-40
2021/12/01 08:47:51;;;;;;;0.40;0.13;;;9.20;99.90;;;7.63;97.91;98903.16;2568136;30;138312;-40
2021/12/01 08:50:18;;;;;;;0.52;0.40;;;9.20;99.90;;;7.64;98.22;98898.59;2568599;30;136699;-40
2021/12/01 08:52:48;;;;;;;0.30;0.20;;;9.20;99.90;;;7.62;98.90;98900.72;2567782;30;137348;-40
2021/12/01 08:55:15;;;;;;;0.43;0.20;;;9.20;99.90;;;7.64;98.82;98890.44;2567478;30;137663;-40
2021/12/01 08:58:02;;;;;;;0.52;0.20;;;9.20;99.90;;;7.61;98.27;98897.16;2568352;30;138258;-40
2021/12/01 09:00:33;;;;;;;0.50;0.22;;;9.20;99.90;;;7.65;98.56;98888.53;2568265;30;138088;-40
2021/12/01 09:03:00;;;;;;;1.48;0.40;;;9.20;99.90;;;7.68;98.62;98877.19;2569127;30;138160;-40
2021/12/01 09:05:28;;;;;;;0.10;0.10;;;9.20;99.90;;;7.72;98.38;98878.38;2568548;30;137319;-40
2021/12/01 09:07:56;;;;;;;0.57;0.30;;;9.30;99.90;;;7.71;98.65;98876.72;2568681;30;138165;-40
2021/12/01 09:10:23;;;;;;;0.38;0.20;;;9.30;99.90;;;7.67;99.04;98879.09;2569047;30;137298;-40
2021/12/01 09:12:51;;;;;;;0.40;0.20;;;9.30;99.90;;;7.68;100.00;98877.19;2568379;30;137891;-38
2021/12/01 09:15:18;;;;;;;0.30;0.20;;;9.20;99.90;;;7.62;100.00;98893.38;2569497;30;137012;-37
2021/12/01 09:17:46;;;;;;;0.17;0.10;;;9.20;99.90;;;7.69;100.00;98876.13;2567671;30;138200;-36
2021/12/01 09:20:14;;;;;;;0.38;0.10;;;9.20;99.90;;;7.69;100.00;98870.69;2568122;30;136585;-36
2021/12/01 09:22:42;;;;;;;0.65;0.20;;;9.30;99.90;;;7.65;100.00;98878.50;2566834;30;137319;-36
2021/12/01 09:25:10;;;;;;;0.40;0.20;;;9.30;99.90;;;7.62;100.00;98882.53;2566809;30;137050;-36
2021/12/01 09:27:38;;;;;;;1.40;0.30;;;9.20;99.90;;;7.60;100.00;98876.50;2567186;30;138732;-36
2021/12/01 09:30:07;;;;;;;0.55;0.28;;;9.20;99.90;;;7.63;100.00;98876.03;2568449;30;137337;-36
2021/12/01 09:32:37;;;;;;;0.30;0.20;;;9.20;99.90;;;7.64;100.00;98871.44;2567072;30;137612;-36
2021/12/01 09:35:11;;;;;;;0.65;0.10;;;9.20;99.90;;;7.63;100.00;98857.03;2567891;30;137598;-36
2021/12/01 09:37:39;;;;;;;0.52;0.10;;;9.20;99.90;;;7.59;100.00;98852.34;2568226;30;137383;-36
2021/12/01 09:40:15;;;;;;;1.00;0.20;;;9.20;99.90;;;7.60;100.00;98857.50;2568891;30;137322;-36
2021/12/01 09:42:48;;;;;;;0.73;0.20;;;9.20;99.90;;;7.61;100.00;98845.59;2568281;30;138181;-36
2021/12/01 09:45:20;;;;;;;0.35;0.10;;;9.20;99.90;;;7.63;100.00;98842.66;2568297;30;137422;-36
2021/12/01 09:47:50;;;;;;;0.20;0.17;;;9.20;99.90;;;7.60;100.00;98843.13;2566419;30;140606;-36
2021/12/01 09:50:18;;;;;;;0.50;0.30;;;9.20;99.90;;;7.67;100.00;98832.13;2565035;30;137473;-36
2021/12/01 09:52:47;;;;;;;4.65;1.70;;;9.20;99.90;;;7.70;100.00;98834.38;2568001;30;139439;-36
2021/12/01 09:55:17;;;;;;;2.03;0.68;;;9.20;99.90;;;7.71;100.00;98828.69;2566682;30;137618;-36
2021/12/01 09:58:24;;;;;;;0.73;0.30;;;9.20;99.90;;;7.73;100.00;98825.75;2568062;30;138296;-36
2021/12/01 10:00:58;;;;;;;2.47;0.70;;;9.30;99.90;;;7.76;100.00;98820.63;2568533;30;137422;-36
2021/12/01 10:03:27;;;;;;;0.75;0.25;;;9.30;99.90;;;7.82;100.00;98816.13;2569513;30;138118;-36
2021/12/01 10:06:13;;;;;;;0.90;0.35;;;9.30;99.90;;;7.87;100.00;98809.97;2567428;30;137429;-36
2021/12/01 10:08:46;;;;;;;0.57;0.30;;;9.40;99.90;;;7.86;100.00;98817.28;2569142;30;138216;-36
2021/12/01 10:11:17;;;;;;;0.63;0.25;;;9.40;99.90;;;7.88;100.00;98807.00;2567620;30;137360;-36
2021/12/01 10:14:19;;;;;;;0.73;0.20;;;9.40;99.90;;;7.90;100.00;98801.34;2566594;30;138229;-36
2021/12/01 10:16:53;;;;;;;0.50;0.28;;;9.40;99.90;;;7.91;100.00;98794.84;2567144;30;137680;-36
2021/12/01 10:19:21;;;;;;;1.10;0.40;;;9.40;99.90;;;7.92;100.00;98799.19;2569002;30;138068;-35
2021/12/01 10:21:51;;;;;;;1.13;0.50;;;9.50;99.90;;;7.92;100.00;98800.00;2569000;30;136772;-36
2021/12/01 10:24:26;;;;;;;1.00;0.30;;;9.50;99.90;;;7.92;100.00;98791.88;2568038;30;137360;-35
2021/12/01 10:27:04;;;;;;;2.22;0.50;;;9.50;99.90;;;7.97;100.00;98782.19;2568679;30;137445;-36
2021/12/01 10:29:42;;;;;;;1.00;0.30;;;9.50;99.90;;;8.00;100.00;98776.25;2567498;30;138171;-36
2021/12/01 10:32:10;;;;;;;0.63;0.20;;;9.50;99.90;;;8.03;100.00;98783.91;2569476;30;137343;-36
2021/12/01 10:34:46;;;;;;;0.40;0.13;;;9.60;99.90;;;8.02;100.00;98793.13;2567782;30;137871;-36
2021/12/01 10:37:26;;;;;;;0.50;0.10;;;9.60;99.90;;;8.06;100.00;98772.56;2569287;30;137322;-36
2021/12/01 10:40:24;;;;;;;3.70;1.27;;;9.60;99.90;;;8.07;100.00;98771.47;2567924;30;137257;-36
2021/12/01 10:42:59;;;;;;;0.40;0.10;;;9.60;99.90;;;8.08;100.00;98762.25;2569123;30;136624;-36